sensor_id;sensor_type;location;lat;lon;timestamp;pressure;altitude;pressure_sealevel;temperature
7389;BMP180;3735;50.136;11.062;2024-03-06T00:02:10;98130.00;;;7.60
7389;BMP180;3735;50.136;11.062;2024-03-06T00:04:37;98133.00;;;7.70
7389;BMP180;3735;50.136;11.062;2024-03-06T00:07:04;98132.00;;;7.70
7389;BMP180;3735;50.136;11.062;2024-03-06T00:09:30;98140.00;;;7.70
7389;BMP180;3735;50.136;11.062;2024-03-06T00:11:57;98137.00;;;7.70
7389;BMP180;3735;50.136;11.062;2024-03-06T00:14:23;98134.00;;;7.70
7389;BMP180;3735;50.136;11.062;2024-03-06T00:16:50;98132.00;;;7.70
7389;BMP180;3735;50.136;11.062;2024-03-06T00:19:17;98136.00;;;7.60
7389;BMP180;3735;50.136;11.062;2024-03-06T00:21:44;98138.00;;;7.60
7389;BMP180;3735;50.136;11.062;2024-03-06T00:24:14;98140.00;;;7.60
7389;BMP180;3735;50.136;11.062;2024-03-06T00:26:46;98143.00;;;7.60
7389;BMP180;3735;50.136;11.062;2024-03-06T00:29:14;98150.00;;;7.60
7389;BMP180;3735;50.136;11.062;2024-03-06T00:31:45;98145.00;;;7.50
7389;BMP180;3735;50.136;11.062;2024-03-06T00:34:12;98148.00;;;7.60
7389;BMP180;3735;50.136;11.062;2024-03-06T00:36:40;98145.00;;;7.60
7389;BMP180;3735;50.136;11.062;2024-03-06T00:39:06;98158.00;;;7.60
7389;BMP180;3735;50.136;11.062;2024-03-06T00:41:34;98135.00;;;7.60
7389;BMP180;3735;50.136;11.062;2024-03-06T00:44:00;98162.00;;;7.60
7389;BMP180;3735;50.136;11.062;2024-03-06T00:46:26;98166.00;;;7.60
7389;BMP180;3735;50.136;11.062;2024-03-06T00:48:51;98167.00;;;7.60
7389;BMP180;3735;50.136;11.062;2024-03-06T00:51:17;98169.00;;;7.60
7389;BMP180;3735;50.136;11.062;2024-03-06T00:53:44;98175.00;;;7.60
7389;BMP180;3735;50.136;11.062;2024-03-06T00:56:10;98166.00;;;7.60
7389;BMP180;3735;50.136;11.062;2024-03-06T00:58:35;98173.00;;;7.50
7389;BMP180;3735;50.136;11.062;2024-03-06T01:01:02;98163.00;;;7.60
7389;BMP180;3735;50.136;11.062;2024-03-06T01:03:28;98146.00;;;7.60
7389;BMP180;3735;50.136;11.062;2024-03-06T01:05:54;98172.00;;;7.60
7389;BMP180;3735;50.136;11.062;2024-03-06T01:08:23;98174.00;;;7.60
7389;BMP180;3735;50.136;11.062;2024-03-06T01:10:51;98174.00;;;7.60
7389;BMP180;3735;50.136;11.062;2024-03-06T01:13:21;98175.00;;;7.60
7389;BMP180;3735;50.136;11.062;2024-03-06T01:15:46;98177.00;;;7.50
7389;BMP180;3735;50.136;11.062;2024-03-06T01:18:13;98172.00;;;7.60
7389;BMP180;3735;50.136;11.062;2024-03-06T01:20:38;98180.00;;;7.50
7389;BMP180;3735;50.136;11.062;2024-03-06T01:23:05;98180.00;;;7.60
7389;BMP180;3735;50.136;11.062;2024-03-06T01:25:31;98182.00;;;7.50
7389;BMP180;3735;50.136;11.062;2024-03-06T01:27:56;98183.00;;;7.60
7389;BMP180;3735;50.136;11.062;2024-03-06T01:30:22;98177.00;;;7.50
7389;BMP180;3735;50.136;11.062;2024-03-06T01:32:48;98185.00;;;7.50
7389;BMP180;3735;50.136;11.062;2024-03-06T01:35:13;98178.00;;;7.60
7389;BMP180;3735;50.136;11.062;2024-03-06T01:37:39;98180.00;;;7.60
7389;BMP180;3735;50.136;11.062;2024-03-06T01:40:06;98179.00;;;7.60
7389;BMP180;3735;50.136;11.062;2024-03-06T01:42:34;98183.00;;;7.60
7389;BMP180;3735;50.136;11.062;2024-03-06T01:45:00;98192.00;;;7.60
7389;BMP180;3735;50.136;11.062;2024-03-06T01:47:27;98184.00;;;7.60
7389;BMP180;3735;50.136;11.062;2024-03-06T01:49:52;98183.00;;;7.60
7389;BMP180;3735;50.136;11.062;2024-03-06T01:52:21;98191.00;;;7.60
7389;BMP180;3735;50.136;11.062;2024-03-06T01:54:48;98195.00;;;7.60
7389;BMP180;3735;50.136;11.062;2024-03-06T01:57:17;98189.00;;;7.60
7389;BMP180;3735;50.136;11.062;2024-03-06T01:59:44;98201.00;;;7.50
7389;BMP180;3735;50.136;11.062;2024-03-06T02:02:10;98198.00;;;7.60
7389;BMP180;3735;50.136;11.062;2024-03-06T02:04:38;98190.00;;;7.60
7389;BMP180;3735;50.136;11.062;2024-03-06T02:07:09;98197.00;;;7.60
7389;BMP180;3735;50.136;11.062;2024-03-06T02:09:38;98189.00;;;7.60
7389;BMP180;3735;50.136;11.062;2024-03-06T02:12:06;98200.00;;;7.60
7389;BMP180;3735;50.136;11.062;2024-03-06T02:14:36;98208.00;;;7.60
7389;BMP180;3735;50.136;11.062;2024-03-06T02:17:02;98204.00;;;7.60
7389;BMP180;3735;50.136;11.062;2024-03-06T02:19:42;98198.00;;;7.60
7389;BMP180;3735;50.136;11.062;2024-03-06T02:22:10;98202.00;;;7.60
7389;BMP180;3735;50.136;11.062;2024-03-06T02:24:36;98206.00;;;7.60
7389;BMP180;3735;50.136;11.062;2024-03-06T02:27:04;98207.00;;;7.60
7389;BMP180;3735;50.136;11.062;2024-03-06T02:29:32;98204.00;;;7.60
7389;BMP180;3735;50.136;11.062;2024-03-06T02:31:59;98200.00;;;7.60
7389;BMP180;3735;50.136;11.062;2024-03-06T02:34:24;98186.00;;;7.60
7389;BMP180;3735;50.136;11.062;2024-03-06T02:36:51;98193.00;;;7.70
7389;BMP180;3735;50.136;11.062;2024-03-06T02:39:17;98198.00;;;7.70
7389;BMP180;3735;50.136;11.062;2024-03-06T02:41:43;98198.00;;;7.70
7389;BMP180;3735;50.136;11.062;2024-03-06T02:44:09;98197.00;;;7.70
7389;BMP180;3735;50.136;11.062;2024-03-06T02:46:35;98200.00;;;7.70
7389;BMP180;3735;50.136;11.062;2024-03-06T02:49:01;98193.00;;;7.70
7389;BMP180;3735;50.136;11.062;2024-03-06T02:51:27;98197.00;;;7.70
7389;BMP180;3735;50.136;11.062;2024-03-06T02:53:52;98202.00;;;7.70
7389;BMP180;3735;50.136;11.062;2024-03-06T02:56:19;98203.00;;;7.70
7389;BMP180;3735;50.136;11.062;2024-03-06T02:58:45;98203.00;;;7.70
7389;BMP180;3735;50.136;11.062;2024-03-06T03:01:11;98202.00;;;7.70
7389;BMP180;3735;50.136;11.062;2024-03-06T03:03:41;98200.00;;;7.70
7389;BMP180;3735;50.136;11.062;2024-03-06T03:06:07;98202.00;;;7.70
7389;BMP180;3735;50.136;11.062;2024-03-06T03:08:33;98206.00;;;7.70
7389;BMP180;3735;50.136;11.062;2024-03-06T03:10:59;98204.00;;;7.60
7389;BMP180;3735;50.136;11.062;2024-03-06T03:13:25;98203.00;;;7.60
7389;BMP180;3735;50.136;11.062;2024-03-06T03:15:50;98208.00;;;7.60
7389;BMP180;3735;50.136;11.062;2024-03-06T03:18:17;98194.00;;;7.60
7389;BMP180;3735;50.136;11.062;2024-03-06T03:20:43;98210.00;;;7.70
7389;BMP180;3735;50.136;11.062;2024-03-06T03:23:09;98201.00;;;7.60
7389;BMP180;3735;50.136;11.062;2024-03-06T03:25:38;98204.00;;;7.60
7389;BMP180;3735;50.136;11.062;2024-03-06T03:28:04;98204.00;;;7.60
7389;BMP180;3735;50.136;11.062;2024-03-06T03:30:30;98199.00;;;7.60
7389;BMP180;3735;50.136;11.062;2024-03-06T03:32:58;98208.00;;;7.60
7389;BMP180;3735;50.136;11.062;2024-03-06T03:35:23;98212.00;;;7.70
7389;BMP180;3735;50.136;11.062;2024-03-06T03:37:54;98214.00;;;7.70
7389;BMP180;3735;50.136;11.062;2024-03-06T03:40:21;98214.00;;;7.70
7389;BMP180;3735;50.136;11.062;2024-03-06T03:42:47;98199.00;;;7.70
7389;BMP180;3735;50.136;11.062;2024-03-06T03:45:13;98214.00;;;7.70
7389;BMP180;3735;50.136;11.062;2024-03-06T03:47:40;98210.00;;;7.70
7389;BMP180;3735;50.136;11.062;2024-03-06T03:50:09;98215.00;;;7.70
7389;BMP180;3735;50.136;11.062;2024-03-06T03:52:35;98220.00;;;7.70
7389;BMP180;3735;50.136;11.062;2024-03-06T03:55:01;98221.00;;;7.70
7389;BMP180;3735;50.136;11.062;2024-03-06T03:57:27;98224.00;;;7.70
7389;BMP180;3735;50.136;11.062;2024-03-06T03:59:52;98214.00;;;7.80
7389;BMP180;3735;50.136;11.062;2024-03-06T04:02:19;98225.00;;;7.80
7389;BMP180;3735;50.136;11.062;2024-03-06T04:04:45;98218.00;;;7.80
7389;BMP180;3735;50.136;11.062;2024-03-06T04:07:10;98223.00;;;7.80
7389;BMP180;3735;50.136;11.062;2024-03-06T04:09:36;98219.00;;;7.80
7389;BMP180;3735;50.136;11.062;2024-03-06T04:12:03;98212.00;;;7.70
7389;BMP180;3735;50.136;11.062;2024-03-06T04:14:29;98226.00;;;7.70
7389;BMP180;3735;50.136;11.062;2024-03-06T04:16:56;98226.00;;;7.70
7389;BMP180;3735;50.136;11.062;2024-03-06T04:19:22;98219.00;;;7.70
7389;BMP180;3735;50.136;11.062;2024-03-06T04:21:47;98216.00;;;7.60
7389;BMP180;3735;50.136;11.062;2024-03-06T04:24:13;98221.00;;;7.70
7389;BMP180;3735;50.136;11.062;2024-03-06T04:26:39;98223.00;;;7.70
7389;BMP180;3735;50.136;11.062;2024-03-06T04:29:05;98221.00;;;7.70
7389;BMP180;3735;50.136;11.062;2024-03-06T04:31:31;98215.00;;;7.70
7389;BMP180;3735;50.136;11.062;2024-03-06T04:33:57;98225.00;;;7.70
7389;BMP180;3735;50.136;11.062;2024-03-06T04:36:22;98226.00;;;7.70
7389;BMP180;3735;50.136;11.062;2024-03-06T04:38:48;98231.00;;;7.70
7389;BMP180;3735;50.136;11.062;2024-03-06T04:41:14;98232.00;;;7.70
7389;BMP180;3735;50.136;11.062;2024-03-06T04:43:40;98238.00;;;7.70
7389;BMP180;3735;50.136;11.062;2024-03-06T04:46:05;98227.00;;;7.70
7389;BMP180;3735;50.136;11.062;2024-03-06T04:48:31;98230.00;;;7.70
7389;BMP180;3735;50.136;11.062;2024-03-06T04:50:57;98238.00;;;7.70
7389;BMP180;3735;50.136;11.062;2024-03-06T04:53:23;98234.00;;;7.70
7389;BMP180;3735;50.136;11.062;2024-03-06T04:55:48;98241.00;;;7.60
7389;BMP180;3735;50.136;11.062;2024-03-06T04:58:14;98246.00;;;7.70
7389;BMP180;3735;50.136;11.062;2024-03-06T05:00:40;98243.00;;;7.60
7389;BMP180;3735;50.136;11.062;2024-03-06T05:03:06;98243.00;;;7.60
7389;BMP180;3735;50.136;11.062;2024-03-06T05:05:32;98253.00;;;7.60
7389;BMP180;3735;50.136;11.062;2024-03-06T05:07:58;98259.00;;;7.50
7389;BMP180;3735;50.136;11.062;2024-03-06T05:10:24;98262.00;;;7.50
7389;BMP180;3735;50.136;11.062;2024-03-06T05:12:49;98264.00;;;7.50
7389;BMP180;3735;50.136;11.062;2024-03-06T05:15:16;98260.00;;;7.50
7389;BMP180;3735;50.136;11.062;2024-03-06T05:17:42;98268.00;;;7.40
7389;BMP180;3735;50.136;11.062;2024-03-06T05:20:09;98271.00;;;7.50
7389;BMP180;3735;50.136;11.062;2024-03-06T05:22:36;98272.00;;;7.40
7389;BMP180;3735;50.136;11.062;2024-03-06T05:25:02;98270.00;;;7.40
7389;BMP180;3735;50.136;11.062;2024-03-06T05:27:28;98266.00;;;7.40
7389;BMP180;3735;50.136;11.062;2024-03-06T05:29:53;98280.00;;;7.40
7389;BMP180;3735;50.136;11.062;2024-03-06T05:32:20;98274.00;;;7.40
7389;BMP180;3735;50.136;11.062;2024-03-06T05:34:46;98270.00;;;7.40
7389;BMP180;3735;50.136;11.062;2024-03-06T05:37:11;98285.00;;;7.40
7389;BMP180;3735;50.136;11.062;2024-03-06T05:39:38;98300.00;;;7.30
7389;BMP180;3735;50.136;11.062;2024-03-06T05:42:05;98281.00;;;7.30
7389;BMP180;3735;50.136;11.062;2024-03-06T05:44:31;98278.00;;;7.30
7389;BMP180;3735;50.136;11.062;2024-03-06T05:47:04;98294.00;;;7.30
7389;BMP180;3735;50.136;11.062;2024-03-06T05:49:31;98302.00;;;7.30
7389;BMP180;3735;50.136;11.062;2024-03-06T05:51:58;98304.00;;;7.30
7389;BMP180;3735;50.136;11.062;2024-03-06T05:54:24;98311.00;;;7.30
7389;BMP180;3735;50.136;11.062;2024-03-06T05:56:51;98303.00;;;7.20
7389;BMP180;3735;50.136;11.062;2024-03-06T05:59:18;98299.00;;;7.20
7389;BMP180;3735;50.136;11.062;2024-03-06T06:01:44;98308.00;;;7.20
7389;BMP180;3735;50.136;11.062;2024-03-06T06:04:11;98307.00;;;7.20
7389;BMP180;3735;50.136;11.062;2024-03-06T06:06:37;98311.00;;;7.20
7389;BMP180;3735;50.136;11.062;2024-03-06T06:09:04;98319.00;;;7.20
7389;BMP180;3735;50.136;11.062;2024-03-06T06:11:33;98322.00;;;7.20
7389;BMP180;3735;50.136;11.062;2024-03-06T06:13:59;98329.00;;;7.30
7389;BMP180;3735;50.136;11.062;2024-03-06T06:16:25;98332.00;;;7.30
7389;BMP180;3735;50.136;11.062;2024-03-06T06:18:50;98334.00;;;7.30
7389;BMP180;3735;50.136;11.062;2024-03-06T06:21:16;98328.00;;;7.30
7389;BMP180;3735;50.136;11.062;2024-03-06T06:23:42;98335.00;;;7.40
7389;BMP180;3735;50.136;11.062;2024-03-06T06:26:09;98335.00;;;7.40
7389;BMP180;3735;50.136;11.062;2024-03-06T06:28:36;98334.00;;;7.40
7389;BMP180;3735;50.136;11.062;2024-03-06T06:31:03;98340.00;;;7.50
7389;BMP180;3735;50.136;11.062;2024-03-06T06:33:30;98345.00;;;7.50
7389;BMP180;3735;50.136;11.062;2024-03-06T06:35:56;98355.00;;;7.60
7389;BMP180;3735;50.136;11.062;2024-03-06T06:38:22;98356.00;;;7.60
7389;BMP180;3735;50.136;11.062;2024-03-06T06:40:47;98356.00;;;7.60
7389;BMP180;3735;50.136;11.062;2024-03-06T06:43:14;98357.00;;;7.60
7389;BMP180;3735;50.136;11.062;2024-03-06T06:45:41;98355.00;;;7.70
7389;BMP180;3735;50.136;11.062;2024-03-06T06:48:07;98342.00;;;7.80
7389;BMP180;3735;50.136;11.062;2024-03-06T06:50:35;98360.00;;;7.90
7389;BMP180;3735;50.136;11.062;2024-03-06T06:53:01;98354.00;;;8.00
7389;BMP180;3735;50.136;11.062;2024-03-06T06:55:27;98369.00;;;8.10
7389;BMP180;3735;50.136;11.062;2024-03-06T06:57:53;98359.00;;;8.20
7389;BMP180;3735;50.136;11.062;2024-03-06T07:00:19;98369.00;;;8.40
7389;BMP180;3735;50.136;11.062;2024-03-06T07:02:47;98359.00;;;8.40
7389;BMP180;3735;50.136;11.062;2024-03-06T07:05:14;98350.00;;;8.50
7389;BMP180;3735;50.136;11.062;2024-03-06T07:07:40;98364.00;;;8.70
7389;BMP180;3735;50.136;11.062;2024-03-06T07:10:07;98366.00;;;8.90
7389;BMP180;3735;50.136;11.062;2024-03-06T07:12:34;98370.00;;;9.30
7389;BMP180;3735;50.136;11.062;2024-03-06T07:15:00;98365.00;;;9.70
7389;BMP180;3735;50.136;11.062;2024-03-06T07:17:28;98372.00;;;9.90
7389;BMP180;3735;50.136;11.062;2024-03-06T07:19:54;98375.00;;;10.20
7389;BMP180;3735;50.136;11.062;2024-03-06T07:22:19;98370.00;;;10.30
7389;BMP180;3735;50.136;11.062;2024-03-06T07:24:45;98378.00;;;10.40
7389;BMP180;3735;50.136;11.062;2024-03-06T07:27:11;98379.00;;;10.50
7389;BMP180;3735;50.136;11.062;2024-03-06T07:29:37;98384.00;;;10.30
7389;BMP180;3735;50.136;11.062;2024-03-06T07:32:06;98381.00;;;10.30
7389;BMP180;3735;50.136;11.062;2024-03-06T07:34:32;98390.00;;;10.10
7389;BMP180;3735;50.136;11.062;2024-03-06T07:36:59;98395.00;;;10.00
7389;BMP180;3735;50.136;11.062;2024-03-06T07:39:27;98398.00;;;9.80
7389;BMP180;3735;50.136;11.062;2024-03-06T07:41:53;98408.00;;;9.70
7389;BMP180;3735;50.136;11.062;2024-03-06T07:44:20;98407.00;;;10.00
7389;BMP180;3735;50.136;11.062;2024-03-06T07:46:46;98410.00;;;10.20
7389;BMP180;3735;50.136;11.062;2024-03-06T07:49:12;98403.00;;;10.20
7389;BMP180;3735;50.136;11.062;2024-03-06T07:51:39;98402.00;;;10.60
7389;BMP180;3735;50.136;11.062;2024-03-06T07:54:06;98406.00;;;10.50
7389;BMP180;3735;50.136;11.062;2024-03-06T07:56:32;98413.00;;;10.40
7389;BMP180;3735;50.136;11.062;2024-03-06T07:58:59;98419.00;;;10.30
7389;BMP180;3735;50.136;11.062;2024-03-06T08:01:25;98422.00;;;10.20
7389;BMP180;3735;50.136;11.062;2024-03-06T08:03:54;98415.00;;;10.20
7389;BMP180;3735;50.136;11.062;2024-03-06T08:06:21;98423.00;;;10.30
7389;BMP180;3735;50.136;11.062;2024-03-06T08:08:46;98417.00;;;11.10
7389;BMP180;3735;50.136;11.062;2024-03-06T08:11:13;98426.00;;;11.20
7389;BMP180;3735;50.136;11.062;2024-03-06T08:13:39;98422.00;;;11.30
7389;BMP180;3735;50.136;11.062;2024-03-06T08:16:07;98425.00;;;11.60
7389;BMP180;3735;50.136;11.062;2024-03-06T08:18:34;98398.00;;;11.80
7389;BMP180;3735;50.136;11.062;2024-03-06T08:21:01;98423.00;;;12.50
7389;BMP180;3735;50.136;11.062;2024-03-06T08:23:28;98429.00;;;12.80
7389;BMP180;3735;50.136;11.062;2024-03-06T08:25:56;98429.00;;;12.80
7389;BMP180;3735;50.136;11.062;2024-03-06T08:28:21;98431.00;;;12.40
7389;BMP180;3735;50.136;11.062;2024-03-06T08:30:47;98435.00;;;12.00
7389;BMP180;3735;50.136;11.062;2024-03-06T08:33:14;98437.00;;;12.10
7389;BMP180;3735;50.136;11.062;2024-03-06T08:35:40;98440.00;;;11.80
7389;BMP180;3735;50.136;11.062;2024-03-06T08:38:06;98446.00;;;11.60
7389;BMP180;3735;50.136;11.062;2024-03-06T08:40:32;98447.00;;;11.50
7389;BMP180;3735;50.136;11.062;2024-03-06T08:42:59;98443.00;;;11.50
7389;BMP180;3735;50.136;11.062;2024-03-06T08:45:24;98456.00;;;11.60
7389;BMP180;3735;50.136;11.062;2024-03-06T08:47:50;98454.00;;;11.70
7389;BMP180;3735;50.136;11.062;2024-03-06T08:50:17;98450.00;;;11.80
7389;BMP180;3735;50.136;11.062;2024-03-06T08:52:43;98464.00;;;12.00
7389;BMP180;3735;50.136;11.062;2024-03-06T08:55:09;98456.00;;;12.20
7389;BMP180;3735;50.136;11.062;2024-03-06T08:57:36;98454.00;;;12.10
7389;BMP180;3735;50.136;11.062;2024-03-06T09:00:03;98449.00;;;11.90
7389;BMP180;3735;50.136;11.062;2024-03-06T09:02:29;98455.00;;;12.20
7389;BMP180;3735;50.136;11.062;2024-03-06T09:04:56;98454.00;;;12.10
7389;BMP180;3735;50.136;11.062;2024-03-06T09:07:22;98462.00;;;12.10
7389;BMP180;3735;50.136;11.062;2024-03-06T09:09:50;98461.00;;;12.10
7389;BMP180;3735;50.136;11.062;2024-03-06T09:12:17;98466.00;;;12.20
7389;BMP180;3735;50.136;11.062;2024-03-06T09:14:43;98467.00;;;12.10
7389;BMP180;3735;50.136;11.062;2024-03-06T09:17:10;98468.00;;;12.10
7389;BMP180;3735;50.136;11.062;2024-03-06T09:19:38;98468.00;;;12.00
7389;BMP180;3735;50.136;11.062;2024-03-06T09:22:04;98477.00;;;12.10
7389;BMP180;3735;50.136;11.062;2024-03-06T09:24:30;98475.00;;;12.30
7389;BMP180;3735;50.136;11.062;2024-03-06T09:26:56;98477.00;;;12.20
7389;BMP180;3735;50.136;11.062;2024-03-06T09:29:21;98478.00;;;12.20
7389;BMP180;3735;50.136;11.062;2024-03-06T09:31:48;98477.00;;;12.10
7389;BMP180;3735;50.136;11.062;2024-03-06T09:34:14;98494.00;;;11.90
7389;BMP180;3735;50.136;11.062;2024-03-06T09:36:47;98493.00;;;11.60
7389;BMP180;3735;50.136;11.062;2024-03-06T09:39:18;98493.00;;;11.50
7389;BMP180;3735;50.136;11.062;2024-03-06T09:41:59;98500.00;;;11.30
7389;BMP180;3735;50.136;11.062;2024-03-06T09:44:25;98495.00;;;11.40
7389;BMP180;3735;50.136;11.062;2024-03-06T09:46:51;98498.00;;;11.40
7389;BMP180;3735;50.136;11.062;2024-03-06T09:49:19;98492.00;;;11.50
7389;BMP180;3735;50.136;11.062;2024-03-06T09:51:47;98499.00;;;11.40
7389;BMP180;3735;50.136;11.062;2024-03-06T09:54:16;98513.00;;;11.00
7389;BMP180;3735;50.136;11.062;2024-03-06T09:56:49;98520.00;;;11.10
7389;BMP180;3735;50.136;11.062;2024-03-06T09:59:15;98510.00;;;10.80
7389;BMP180;3735;50.136;11.062;2024-03-06T10:04:28;98527.00;;;10.70
7389;BMP180;3735;50.136;11.062;2024-03-06T10:06:59;98512.00;;;10.70
7389;BMP180;3735;50.136;11.062;2024-03-06T10:09:26;98515.00;;;10.60
7389;BMP180;3735;50.136;11.062;2024-03-06T10:11:53;98521.00;;;10.70
7389;BMP180;3735;50.136;11.062;2024-03-06T10:14:21;98522.00;;;10.90
7389;BMP180;3735;50.136;11.062;2024-03-06T10:16:58;98520.00;;;11.20
7389;BMP180;3735;50.136;11.062;2024-03-06T10:19:28;98522.00;;;11.30
7389;BMP180;3735;50.136;11.062;2024-03-06T10:21:55;98526.00;;;11.30
7389;BMP180;3735;50.136;11.062;2024-03-06T10:24:29;98527.00;;;11.50
7389;BMP180;3735;50.136;11.062;2024-03-06T10:26:57;98523.00;;;11.60
7389;BMP180;3735;50.136;11.062;2024-03-06T10:29:26;98521.00;;;11.60
7389;BMP180;3735;50.136;11.062;2024-03-06T10:31:55;98531.00;;;11.50
7389;BMP180;3735;50.136;11.062;2024-03-06T10:34:28;98527.00;;;11.90
7389;BMP180;3735;50.136;11.062;2024-03-06T10:37:00;98535.00;;;12.20
7389;BMP180;3735;50.136;11.062;2024-03-06T10:39:27;98531.00;;;12.40
7389;BMP180;3735;50.136;11.062;2024-03-06T10:41:57;98542.00;;;12.30
7389;BMP180;3735;50.136;11.062;2024-03-06T10:44:27;98547.00;;;12.00
7389;BMP180;3735;50.136;11.062;2024-03-06T10:47:02;98540.00;;;11.80
7389;BMP180;3735;50.136;11.062;2024-03-06T10:49:30;98546.00;;;11.80
7389;BMP180;3735;50.136;11.062;2024-03-06T10:52:04;98548.00;;;11.60
7389;BMP180;3735;50.136;11.062;2024-03-06T10:54:34;98553.00;;;11.50
7389;BMP180;3735;50.136;11.062;2024-03-06T10:57:05;98546.00;;;11.30
7389;BMP180;3735;50.136;11.062;2024-03-06T10:59:31;98556.00;;;11.10
7389;BMP180;3735;50.136;11.062;2024-03-06T11:01:59;98552.00;;;10.80
7389;BMP180;3735;50.136;11.062;2024-03-06T11:04:28;98555.00;;;10.60
7389;BMP180;3735;50.136;11.062;2024-03-06T11:06:57;98549.00;;;10.60
7389;BMP180;3735;50.136;11.062;2024-03-06T11:09:32;98554.00;;;10.80
7389;BMP180;3735;50.136;11.062;2024-03-06T11:12:01;98552.00;;;11.20
7389;BMP180;3735;50.136;11.062;2024-03-06T11:20:43;98554.00;;;12.00
7389;BMP180;3735;50.136;11.062;2024-03-06T11:23:10;98558.00;;;11.90
7389;BMP180;3735;50.136;11.062;2024-03-06T11:28:26;98564.00;;;11.30
7389;BMP180;3735;50.136;11.062;2024-03-06T11:31:11;98557.00;;;11.50
7389;BMP180;3735;50.136;11.062;2024-03-06T11:33:52;98557.00;;;11.90
7389;BMP180;3735;50.136;11.062;2024-03-06T11:36:24;98546.00;;;11.80
7389;BMP180;3735;50.136;11.062;2024-03-06T11:39:08;98557.00;;;11.70
7389;BMP180;3735;50.136;11.062;2024-03-06T11:41:47;98560.00;;;12.00
7389;BMP180;3735;50.136;11.062;2024-03-06T11:44:19;98552.00;;;12.20
7389;BMP180;3735;50.136;11.062;2024-03-06T11:47:04;98544.00;;;13.50
7389;BMP180;3735;50.136;11.062;2024-03-06T11:49:33;98548.00;;;13.90
7389;BMP180;3735;50.136;11.062;2024-03-06T11:52:05;98544.00;;;14.10
7389;BMP180;3735;50.136;11.062;2024-03-06T11:54:32;98540.00;;;13.70
7389;BMP180;3735;50.136;11.062;2024-03-06T11:57:01;98530.00;;;13.90
7389;BMP180;3735;50.136;11.062;2024-03-06T11:59:33;98508.00;;;14.80
7389;BMP180;3735;50.136;11.062;2024-03-06T12:02:01;98534.00;;;15.40
7389;BMP180;3735;50.136;11.062;2024-03-06T12:04:29;98536.00;;;15.70
7389;BMP180;3735;50.136;11.062;2024-03-06T12:06:59;98531.00;;;15.80
7389;BMP180;3735;50.136;11.062;2024-03-06T12:09:26;98534.00;;;16.20
7389;BMP180;3735;50.136;11.062;2024-03-06T12:11:52;98534.00;;;15.50
7389;BMP180;3735;50.136;11.062;2024-03-06T12:14:20;98538.00;;;15.20
7389;BMP180;3735;50.136;11.062;2024-03-06T12:17:00;98517.00;;;16.10
7389;BMP180;3735;50.136;11.062;2024-03-06T12:19:33;98535.00;;;16.30
7389;BMP180;3735;50.136;11.062;2024-03-06T12:22:01;98537.00;;;16.10
7389;BMP180;3735;50.136;11.062;2024-03-06T12:24:29;98537.00;;;15.90
7389;BMP180;3735;50.136;11.062;2024-03-06T12:27:07;98542.00;;;15.20
7389;BMP180;3735;50.136;11.062;2024-03-06T12:29:35;98551.00;;;15.00
7389;BMP180;3735;50.136;11.062;2024-03-06T12:32:04;98543.00;;;15.40
7389;BMP180;3735;50.136;11.062;2024-03-06T12:34:40;98537.00;;;16.00
7389;BMP180;3735;50.136;11.062;2024-03-06T12:37:10;98538.00;;;15.70
7389;BMP180;3735;50.136;11.062;2024-03-06T12:39:36;98529.00;;;16.30
7389;BMP180;3735;50.136;11.062;2024-03-06T12:42:02;98530.00;;;16.70
7389;BMP180;3735;50.136;11.062;2024-03-06T12:44:27;98534.00;;;16.70
7389;BMP180;3735;50.136;11.062;2024-03-06T12:46:53;98534.00;;;16.90
7389;BMP180;3735;50.136;11.062;2024-03-06T12:49:19;98524.00;;;16.90
7389;BMP180;3735;50.136;11.062;2024-03-06T12:51:45;98530.00;;;16.70
7389;BMP180;3735;50.136;11.062;2024-03-06T12:54:11;98530.00;;;16.90
7389;BMP180;3735;50.136;11.062;2024-03-06T12:56:36;98524.00;;;17.70
7389;BMP180;3735;50.136;11.062;2024-03-06T12:59:02;98524.00;;;17.80
7389;BMP180;3735;50.136;11.062;2024-03-06T13:01:30;98524.00;;;17.50
7389;BMP180;3735;50.136;11.062;2024-03-06T13:03:56;98522.00;;;17.80
7389;BMP180;3735;50.136;11.062;2024-03-06T13:06:22;98523.00;;;17.90
7389;BMP180;3735;50.136;11.062;2024-03-06T13:08:48;98531.00;;;18.00
7389;BMP180;3735;50.136;11.062;2024-03-06T13:11:14;98531.00;;;17.20
7389;BMP180;3735;50.136;11.062;2024-03-06T13:13:39;98531.00;;;17.10
7389;BMP180;3735;50.136;11.062;2024-03-06T13:16:05;98530.00;;;17.70
7389;BMP180;3735;50.136;11.062;2024-03-06T13:18:31;98534.00;;;16.50
7389;BMP180;3735;50.136;11.062;2024-03-06T13:20:57;98529.00;;;15.60
7389;BMP180;3735;50.136;11.062;2024-03-06T13:23:24;98529.00;;;15.80
7389;BMP180;3735;50.136;11.062;2024-03-06T13:25:50;98539.00;;;16.10
7389;BMP180;3735;50.136;11.062;2024-03-06T13:28:15;98530.00;;;16.30
7389;BMP180;3735;50.136;11.062;2024-03-06T13:30:41;98531.00;;;16.20
7389;BMP180;3735;50.136;11.062;2024-03-06T13:33:07;98538.00;;;16.60
7389;BMP180;3735;50.136;11.062;2024-03-06T13:35:33;98539.00;;;16.70
7389;BMP180;3735;50.136;11.062;2024-03-06T13:37:59;98540.00;;;16.80
7389;BMP180;3735;50.136;11.062;2024-03-06T13:40:25;98534.00;;;16.50
7389;BMP180;3735;50.136;11.062;2024-03-06T13:42:52;98549.00;;;16.00
7389;BMP180;3735;50.136;11.062;2024-03-06T13:45:18;98537.00;;;15.10
7389;BMP180;3735;50.136;11.062;2024-03-06T13:47:45;98554.00;;;14.30
7389;BMP180;3735;50.136;11.062;2024-03-06T13:50:13;98555.00;;;14.50
7389;BMP180;3735;50.136;11.062;2024-03-06T13:52:41;98551.00;;;15.70
7389;BMP180;3735;50.136;11.062;2024-03-06T13:55:08;98541.00;;;17.00
7389;BMP180;3735;50.136;11.062;2024-03-06T13:57:38;98555.00;;;17.00
7389;BMP180;3735;50.136;11.062;2024-03-06T14:00:06;98561.00;;;15.80
7389;BMP180;3735;50.136;11.062;2024-03-06T14:02:33;98562.00;;;15.00
7389;BMP180;3735;50.136;11.062;2024-03-06T14:04:59;98560.00;;;15.40
7389;BMP180;3735;50.136;11.062;2024-03-06T14:07:25;98565.00;;;15.80
7389;BMP180;3735;50.136;11.062;2024-03-06T14:09:51;98567.00;;;15.50
7389;BMP180;3735;50.136;11.062;2024-03-06T14:12:17;98569.00;;;15.40
7389;BMP180;3735;50.136;11.062;2024-03-06T14:14:43;98575.00;;;15.50
7389;BMP180;3735;50.136;11.062;2024-03-06T14:17:11;98560.00;;;15.90
7389;BMP180;3735;50.136;11.062;2024-03-06T14:19:38;98565.00;;;15.60
7389;BMP180;3735;50.136;11.062;2024-03-06T14:22:08;98572.00;;;16.10
7389;BMP180;3735;50.136;11.062;2024-03-06T14:24:35;98573.00;;;15.60
7389;BMP180;3735;50.136;11.062;2024-03-06T14:27:04;98579.00;;;15.00
7389;BMP180;3735;50.136;11.062;2024-03-06T14:29:31;98577.00;;;14.20
7389;BMP180;3735;50.136;11.062;2024-03-06T14:31:56;98583.00;;;13.50
7389;BMP180;3735;50.136;11.062;2024-03-06T14:34:22;98582.00;;;13.20
7389;BMP180;3735;50.136;11.062;2024-03-06T14:36:53;98591.00;;;13.40
7389;BMP180;3735;50.136;11.062;2024-03-06T14:39:19;98585.00;;;14.30
7389;BMP180;3735;50.136;11.062;2024-03-06T14:41:49;98586.00;;;15.50